createdAt,value
2018-12-01T00:00:12.907Z,95383.53
2018-12-01T00:02:42.414Z,95380.75
2018-12-01T00:05:11.986Z,95388.91
2018-12-01T00:07:40.497Z,95385.05
2018-12-01T00:10:09.022Z,95388.05
2018-12-01T00:12:37.586Z,95385.30
2018-12-01T00:15:06.108Z,95394.03
2018-12-01T00:17:34.662Z,95394.03
2018-12-01T00:20:03.209Z,95394.52
2018-12-01T00:22:31.738Z,95396.45
2018-12-01T00:25:00.547Z,95403.65
2018-12-01T00:27:28.889Z,95400.42
2018-12-01T00:29:57.410Z,95398.33
2018-12-01T00:32:25.939Z,95404.98
2018-12-01T00:34:54.510Z,95405.31
2018-12-01T00:37:23.043Z,95405.63
2018-12-01T00:39:51.568Z,95398.80
2018-12-01T00:42:20.132Z,95402.94
2018-12-01T00:44:48.793Z,95407.02
2018-12-01T00:47:17.334Z,95408.77
2018-12-01T00:49:45.832Z,95410.73
2018-12-01T00:52:14.352Z,95413.33
2018-12-01T00:54:42.853Z,95414.57
2018-12-01T00:57:11.442Z,95418.38
2018-12-01T00:59:39.936Z,95414.59
2018-12-01T01:02:08.453Z,95420.85
2018-12-01T01:04:37.021Z,95423.75
2018-12-01T01:07:05.566Z,95425.69
2018-12-01T01:09:34.102Z,95430.58
2018-12-01T01:12:13.123Z,95433.83
2018-12-01T01:14:42.438Z,95435.31
2018-12-01T01:17:10.954Z,95436.75
2018-12-01T01:19:39.490Z,95438.84
2018-12-01T01:22:08.013Z,95435.68
2018-12-01T01:24:36.534Z,95444.48
2018-12-01T01:27:05.042Z,95447.02
2018-12-01T01:29:33.562Z,95447.93
2018-12-01T01:32:02.102Z,95441.53
2018-12-01T01:34:30.621Z,95442.08
2018-12-01T01:36:59.151Z,95445.46
2018-12-01T01:39:27.770Z,95450.56
2018-12-01T01:41:56.615Z,95446.53
2018-12-01T01:44:25.110Z,95443.68
2018-12-01T01:46:53.656Z,95445.45
2018-12-01T01:49:22.161Z,95440.63
2018-12-01T01:51:50.699Z,95444.38
2018-12-01T01:54:29.455Z,95442.59
2018-12-01T01:56:57.949Z,95445.72
2018-12-01T01:59:26.457Z,95451.09
2018-12-01T02:01:54.983Z,95449.64
2018-12-01T02:04:23.500Z,95447.44
2018-12-01T02:06:52.022Z,95449.80
2018-12-01T02:09:20.544Z,95453.84
2018-12-01T02:11:49.054Z,95452.44
2018-12-01T02:14:17.594Z,95446.42
2018-12-01T02:16:47.039Z,95438.41
2018-12-01T02:19:16.552Z,95445.72
2018-12-01T02:21:46.067Z,95436.37
2018-12-01T02:24:14.587Z,95438.54
2018-12-01T02:26:43.201Z,95441.85
2018-12-01T02:29:11.723Z,95444.76
2018-12-01T02:31:40.285Z,95443.83
2018-12-01T02:34:08.807Z,95440.92
2018-12-01T02:36:37.316Z,95443.40
2018-12-01T02:39:05.843Z,95443.50
2018-12-01T02:41:34.362Z,95439.75
2018-12-01T02:44:02.893Z,95447.05
2018-12-01T02:46:38.229Z,95444.90
2018-12-01T02:49:06.774Z,95447.91
2018-12-01T02:51:35.321Z,95450.89
2018-12-01T02:54:03.824Z,95447.29
2018-12-01T02:56:32.366Z,95443.37
2018-12-01T02:59:00.876Z,95445.78
2018-12-01T03:01:29.400Z,95445.48
2018-12-01T03:03:57.904Z,95450.16
2018-12-01T03:06:26.424Z,95451.94
2018-12-01T03:08:54.942Z,95456.34
2018-12-01T03:16:44.221Z,95457.09
2018-12-01T03:19:20.436Z,95458.11
2018-12-01T03:21:49.500Z,95459.16
2018-12-01T03:24:18.606Z,95460.59
2018-12-01T03:26:47.639Z,95462.52
2018-12-01T03:29:16.690Z,95462.41
2018-12-01T03:31:45.846Z,95463.75
2018-12-01T03:34:14.896Z,95460.42
2018-12-01T03:36:43.971Z,95465.56
2018-12-01T03:39:13.023Z,95467.68
2018-12-01T03:41:42.069Z,95476.33
2018-12-01T03:44:11.120Z,95473.64
2018-12-01T03:46:40.163Z,95472.14
2018-12-01T03:49:09.244Z,95475.09
2018-12-01T03:51:38.299Z,95473.42
2018-12-01T03:54:07.489Z,95477.48
2018-12-01T03:56:36.563Z,95482.78
2018-12-01T03:59:05.631Z,95478.23
2018-12-01T04:01:41.848Z,95472.33
2018-12-01T04:04:11.473Z,95472.65
2018-12-01T04:06:40.610Z,95475.71
2018-12-01T04:09:09.667Z,95484.90
2018-12-01T04:11:39.715Z,95484.73
2018-12-01T04:14:08.766Z,95486.56
2018-12-01T04:16:38.755Z,95489.58
2018-12-01T04:19:07.807Z,95488.98
2018-12-01T04:21:36.855Z,95495.38
2018-12-01T04:24:05.903Z,95501.45
2018-12-01T04:26:34.958Z,95503.98
2018-12-01T04:29:04.002Z,95506.16
2018-12-01T04:31:33.083Z,95506.05
2018-12-01T04:34:02.133Z,95502.17
2018-12-01T04:36:31.184Z,95507.17
2018-12-01T04:39:00.229Z,95510.72
2018-12-01T04:42:54.288Z,95509.48
2018-12-01T04:45:23.340Z,95510.51
2018-12-01T04:47:52.468Z,95518.92
2018-12-01T04:50:21.519Z,95520.08
2018-12-01T04:52:50.588Z,95517.81
2018-12-01T04:57:56.418Z,95517.17
2018-12-01T05:00:26.351Z,95516.74
2018-12-01T05:02:55.402Z,95519.83
2018-12-01T05:05:24.478Z,95516.74
2018-12-01T05:07:53.539Z,95518.11
2018-12-01T05:10:22.586Z,95518.54
2018-12-01T05:12:51.644Z,95522.20
2018-12-01T05:15:20.704Z,95517.73
2018-12-01T05:17:49.928Z,95515.07
2018-12-01T05:20:18.966Z,95510.88
2018-12-01T05:22:48.019Z,95513.78
2018-12-01T05:27:53.062Z,95511.99
2018-12-01T05:30:22.099Z,95511.66
2018-12-01T05:32:51.159Z,95518.20
2018-12-01T05:37:55.961Z,95526.22
2018-12-01T05:40:25.220Z,95529.05
2018-12-01T05:45:30.133Z,95526.00
2018-12-01T05:50:35.553Z,95527.39
2018-12-01T05:53:04.603Z,95523.10
2018-12-01T05:55:33.960Z,95530.19
2018-12-01T05:58:15.375Z,95538.99
2018-12-01T06:00:55.306Z,95537.05
2018-12-01T06:03:33.077Z,95538.45
2018-12-01T06:06:02.571Z,95539.63
2018-12-01T06:08:32.250Z,95536.55
2018-12-01T06:11:01.334Z,95537.19
2018-12-01T06:13:31.082Z,95533.86
2018-12-01T06:16:00.294Z,95539.43
2018-12-01T06:18:29.353Z,95538.47
2018-12-01T06:20:58.378Z,95541.74
2018-12-01T06:23:27.436Z,95543.98
2018-12-01T06:25:56.544Z,95547.06
2018-12-01T06:28:25.604Z,95552.69
2018-12-01T06:31:03.592Z,95557.39
2018-12-01T06:33:32.631Z,95558.95
2018-12-01T06:36:01.683Z,95565.59
2018-12-01T06:38:30.729Z,95565.83
2018-12-01T06:40:59.787Z,95564.25
2018-12-01T06:43:28.837Z,95568.27
2018-12-01T06:45:58.776Z,95575.48
2018-12-01T06:48:28.784Z,95572.91
2018-12-01T06:50:58.823Z,95580.87
2018-12-01T06:56:03.555Z,95576.73
2018-12-01T06:58:33.572Z,95583.06
2018-12-01T07:01:03.544Z,95585.97
2018-12-01T07:03:32.587Z,95588.16
2018-12-01T07:06:01.649Z,95593.02
2018-12-01T07:08:30.727Z,95594.86
2018-12-01T07:10:59.825Z,95595.07
2018-12-01T07:13:41.025Z,95596.23
2018-12-01T07:16:20.168Z,95598.53
2018-12-01T07:21:25.475Z,95601.05
2018-12-01T07:23:55.493Z,95600.38
2018-12-01T07:29:01.678Z,95605.16
2018-12-01T07:31:30.716Z,95600.44
2018-12-01T07:34:00.098Z,95600.61
2018-12-01T07:36:29.159Z,95602.73
2018-12-01T07:39:00.372Z,95601.01
2018-12-01T07:41:29.443Z,95604.11
2018-12-01T07:43:58.606Z,95608.31
2018-12-01T07:46:27.673Z,95605.00
2018-12-01T07:48:56.800Z,95601.42
2018-12-01T07:51:26.892Z,95606.42
2018-12-01T07:53:56.052Z,95610.06
2018-12-01T07:59:03.726Z,95617.20
2018-12-01T08:01:34.838Z,95618.69
2018-12-01T08:04:03.860Z,95616.83
2018-12-01T08:06:34.155Z,95621.11
2018-12-01T08:09:03.276Z,95621.75
2018-12-01T08:11:32.347Z,95617.89
2018-12-01T08:14:01.391Z,95618.92
2018-12-01T08:16:30.553Z,95616.62
2018-12-01T08:18:59.594Z,95624.89
2018-12-01T08:21:28.799Z,95627.85
2018-12-01T08:23:57.934Z,95630.66
2018-12-01T08:29:03.379Z,95628.77
2018-12-01T08:31:32.426Z,95626.44
2018-12-01T08:34:01.495Z,95629.00
2018-12-01T08:36:30.686Z,95633.48
2018-12-01T08:39:04.444Z,95632.34
2018-12-01T08:41:33.679Z,95632.41
2018-12-01T08:44:02.725Z,95631.38
2018-12-01T08:46:31.869Z,95632.77
2018-12-01T08:49:02.843Z,95632.76
2018-12-01T08:51:31.900Z,95634.05
2018-12-01T08:54:00.947Z,95632.97
2018-12-01T08:56:29.992Z,95636.54
2018-12-01T08:58:59.033Z,95637.95
2018-12-01T09:01:28.124Z,95636.92
2018-12-01T09:04:01.264Z,95648.08
2018-12-01T09:06:30.324Z,95643.70
2018-12-01T09:09:01.122Z,95638.93
2018-12-01T09:11:30.182Z,95639.86
2018-12-01T09:16:35.404Z,95642.33
2018-12-01T09:19:04.688Z,95645.29
2018-12-01T09:24:11.687Z,95633.47
2018-12-01T09:26:40.710Z,95636.25
2018-12-01T09:29:09.803Z,95629.99
2018-12-01T09:31:38.864Z,95631.14
2018-12-01T09:34:07.918Z,95632.93
2018-12-01T09:36:37.075Z,95628.42
2018-12-01T09:39:06.118Z,95630.45
2018-12-01T09:41:35.169Z,95633.00
2018-12-01T09:44:05.141Z,95628.27
2018-12-01T09:46:35.626Z,95621.91
2018-12-01T09:49:04.693Z,95612.19
2018-12-01T09:54:09.450Z,95597.19
2018-12-01T09:56:38.744Z,95589.89
2018-12-01T09:59:07.807Z,95587.61
2018-12-01T10:01:36.846Z,95579.98
2018-12-01T10:06:41.697Z,95578.53
2018-12-01T10:09:10.799Z,95581.28
2018-12-01T10:11:39.868Z,95571.77
2018-12-01T10:14:08.916Z,95567.45
2018-12-01T10:16:38.994Z,95563.73
2018-12-01T10:19:08.218Z,95563.34
2018-12-01T10:21:37.275Z,95564.48
2018-12-01T10:24:07.288Z,95557.44
2018-12-01T10:29:12.211Z,95552.25
2018-12-01T10:31:41.246Z,95548.19
2018-12-01T10:34:10.304Z,95550.50
2018-12-01T10:36:39.461Z,95540.00
2018-12-01T10:39:09.476Z,95547.19
2018-12-01T10:41:38.532Z,95538.06
2018-12-01T10:44:07.696Z,95528.86
2018-12-01T10:46:36.747Z,95531.53
2018-12-01T10:49:05.793Z,95523.80
2018-12-01T10:54:10.545Z,95517.02
2018-12-01T10:56:39.631Z,95511.84
2018-12-01T11:01:46.437Z,95506.11
2018-12-01T11:04:16.711Z,95505.97
2018-12-01T11:06:45.744Z,95502.97
2018-12-01T11:09:14.783Z,95505.06
2018-12-01T11:11:43.863Z,95497.01
2018-12-01T11:14:12.899Z,95504.42
2018-12-01T11:16:41.977Z,95494.94
2018-12-01T11:19:11.003Z,95495.20
2018-12-01T11:21:41.030Z,95487.94
2018-12-01T11:24:10.970Z,95486.37
2018-12-01T11:26:41.411Z,95490.51
2018-12-01T11:29:12.658Z,95490.66
2018-12-01T11:31:41.839Z,95488.87
2018-12-01T11:36:46.673Z,95491.95
2018-12-01T11:39:15.700Z,95498.20
2018-12-01T11:44:20.491Z,95488.02
2018-12-01T11:46:49.526Z,95488.09
2018-12-01T11:49:18.570Z,95483.80
2018-12-01T11:51:47.619Z,95479.82
2018-12-01T11:54:20.568Z,95484.41
2018-12-01T11:56:49.724Z,95490.43
2018-12-01T11:59:18.795Z,95489.56
2018-12-01T12:01:47.849Z,95486.69
2018-12-01T12:04:16.902Z,95489.81
2018-12-01T12:06:46.135Z,95491.64
2018-12-01T12:09:15.231Z,95486.97
2018-12-01T12:11:49.808Z,95488.02
2018-12-01T12:14:18.827Z,95491.46
2018-12-01T12:16:48.888Z,95487.58
2018-12-01T12:19:18.875Z,95491.86
2018-12-01T12:21:47.948Z,95499.62
2018-12-01T12:26:52.789Z,95499.32
2018-12-01T12:29:21.939Z,95499.02
2018-12-01T12:31:50.951Z,95500.08
2018-12-01T12:34:20.039Z,95506.23
2018-12-01T12:36:49.123Z,95507.55
2018-12-01T12:39:19.122Z,95508.15
2018-12-01T12:41:48.692Z,95508.81
2018-12-01T12:46:54.544Z,95506.77
2018-12-01T12:49:23.572Z,95502.92
2018-12-01T12:51:53.611Z,95502.05
2018-12-01T12:54:27.738Z,95505.78
2018-12-01T12:56:56.909Z,95505.48
2018-12-01T12:59:25.954Z,95502.08
2018-12-01T13:01:55.755Z,95499.33
2018-12-01T13:04:25.373Z,95497.04
2018-12-01T13:06:54.435Z,95495.75
2018-12-01T13:09:24.378Z,95495.46
2018-12-01T13:11:54.415Z,95502.66
2018-12-01T13:14:23.487Z,95504.71
2018-12-01T13:19:28.268Z,95496.14
2018-12-01T13:21:57.504Z,95491.88
2018-12-01T13:24:27.487Z,95489.22
2018-12-01T13:26:57.559Z,95476.55
2018-12-01T13:32:02.323Z,95475.41
2018-12-01T13:34:31.355Z,95477.59
2018-12-01T13:37:01.315Z,95472.66
2018-12-01T13:39:30.355Z,95471.99
2018-12-01T13:41:59.419Z,95471.09
2018-12-01T13:44:30.506Z,95466.59
2018-12-01T13:49:35.875Z,95466.29
2018-12-01T13:52:05.463Z,95463.91
2018-12-01T13:54:34.522Z,95467.94
2018-12-01T13:57:03.553Z,95474.74
2018-12-01T13:59:32.571Z,95475.38
2018-12-01T14:02:01.628Z,95482.49
2018-12-01T14:04:31.558Z,95488.16
2018-12-01T14:07:00.621Z,95493.36
2018-12-01T14:09:29.655Z,95493.36
2018-12-01T14:14:36.366Z,95499.41
2018-12-01T14:17:05.614Z,95503.42
2018-12-01T14:19:36.579Z,95500.72
2018-12-01T14:22:06.353Z,95500.84
2018-12-01T14:24:35.399Z,95494.91
2018-12-01T14:27:04.442Z,95487.11
2018-12-01T14:29:34.427Z,95488.39
2018-12-01T14:32:04.429Z,95487.73
2018-12-01T14:34:33.459Z,95482.84
2018-12-01T14:37:02.821Z,95482.05
2018-12-01T14:39:31.849Z,95478.95
2018-12-01T14:42:07.168Z,95478.97
2018-12-01T14:44:39.232Z,95483.20
2018-12-01T14:47:08.352Z,95486.68
2018-12-01T14:49:39.290Z,95488.23
2018-12-01T14:52:08.327Z,95483.63
2018-12-01T14:54:40.834Z,95480.80
2018-12-01T14:57:13.817Z,95480.02
2018-12-01T14:59:46.522Z,95480.63
2018-12-01T15:02:19.617Z,95477.23
2018-12-01T15:04:53.318Z,95477.56
2018-12-01T15:10:03.191Z,95467.30
2018-12-01T15:12:36.334Z,95465.43
2018-12-01T15:15:09.789Z,95465.80
2018-12-01T15:17:44.554Z,95464.66
2018-12-01T15:20:17.881Z,95468.13
2018-12-01T15:25:29.038Z,95461.66
2018-12-01T15:28:02.031Z,95467.86
2018-12-01T15:30:37.530Z,95455.07
2018-12-01T15:33:11.717Z,95458.69
2018-12-01T15:35:45.165Z,95455.66
2018-12-01T15:38:18.836Z,95456.48
2018-12-01T15:40:52.454Z,95451.64
2018-12-01T15:43:25.778Z,95452.66
2018-12-01T15:45:59.036Z,95450.78
2018-12-01T15:48:31.606Z,95448.97
2018-12-01T15:51:04.863Z,95450.24
2018-12-01T15:53:39.493Z,95452.80
2018-12-01T15:56:12.436Z,95455.72
2018-12-01T15:58:46.731Z,95449.40
2018-12-01T16:01:19.684Z,95451.97
2018-12-01T16:03:53.294Z,95454.17
2018-12-01T16:06:27.026Z,95455.30
2018-12-01T16:09:00.415Z,95461.84
2018-12-01T16:11:34.135Z,95459.78
2018-12-01T16:16:43.349Z,95463.39
2018-12-01T16:21:54.371Z,95465.70
2018-12-01T16:24:27.595Z,95458.45
2018-12-01T16:26:59.982Z,95457.67
2018-12-01T16:29:32.940Z,95458.89
2018-12-01T16:32:05.442Z,95463.86
2018-12-01T16:34:38.101Z,95462.67
2018-12-01T16:39:49.470Z,95456.33
2018-12-01T16:44:59.184Z,95450.48
2018-12-01T16:47:31.882Z,95443.16
2018-12-01T16:50:06.477Z,95445.55
2018-12-01T16:55:17.038Z,95448.52
2018-12-01T16:57:49.906Z,95453.38
2018-12-01T17:03:00.667Z,95447.82
2018-12-01T17:05:32.696Z,95442.52
2018-12-01T17:08:05.443Z,95446.55
2018-12-01T17:10:38.606Z,95449.91
2018-12-01T17:13:11.804Z,95453.03
2018-12-01T17:15:43.025Z,95453.20
2018-12-01T17:20:52.459Z,95446.00
2018-12-01T17:23:25.370Z,95440.30
2018-12-01T17:28:34.881Z,95431.05
2018-12-01T17:31:09.024Z,95424.36
2018-12-01T17:33:41.783Z,95423.70
2018-12-01T17:38:50.240Z,95427.05
2018-12-01T17:46:37.874Z,95428.78
2018-12-01T17:49:10.522Z,95427.06
2018-12-01T17:51:43.604Z,95422.36
2018-12-01T17:54:16.677Z,95422.02
2018-12-01T17:56:50.367Z,95423.02
2018-12-01T17:59:23.499Z,95422.42
2018-12-01T18:01:56.561Z,95421.63
2018-12-01T18:04:29.549Z,95417.30
2018-12-01T18:07:03.943Z,95413.41
2018-12-01T18:09:36.567Z,95413.03
2018-12-01T18:14:46.252Z,95417.34
2018-12-01T18:17:19.119Z,95424.17
2018-12-01T18:19:52.984Z,95423.89
2018-12-01T18:22:26.458Z,95421.03
2018-12-01T18:24:59.473Z,95415.79
2018-12-01T18:27:31.428Z,95418.22
2018-12-01T18:32:41.603Z,95422.28
2018-12-01T18:37:51.588Z,95416.28
2018-12-01T18:40:24.424Z,95412.91
2018-12-01T18:43:00.299Z,95405.59
2018-12-01T18:45:33.897Z,95404.86
2018-12-01T18:48:08.506Z,95407.29
2018-12-01T18:50:41.449Z,95406.41
2018-12-01T18:53:14.660Z,95403.02
2018-12-01T18:55:48.351Z,95400.81
2018-12-01T18:58:21.774Z,95402.11
2018-12-01T19:00:55.193Z,95402.95
2018-12-01T19:03:28.194Z,95398.79
2018-12-01T19:06:01.089Z,95394.23
2018-12-01T19:08:33.554Z,95391.67
2018-12-01T19:11:06.737Z,95402.42
2018-12-01T19:13:39.515Z,95400.48
2018-12-01T19:16:12.480Z,95396.80
2018-12-01T19:18:48.181Z,95397.35
2018-12-01T19:21:21.624Z,95398.72
2018-12-01T19:26:32.172Z,95390.47
2018-12-01T19:29:04.764Z,95385.42
2018-12-01T19:31:37.720Z,95385.28
2018-12-01T19:36:47.402Z,95388.64
2018-12-01T19:39:19.734Z,95389.04
2018-12-01T19:41:54.354Z,95377.96
2018-12-01T19:44:26.639Z,95374.92
2018-12-01T19:46:58.805Z,95373.72
2018-12-01T19:49:33.034Z,95366.64
2018-12-01T19:52:05.983Z,95368.53
2018-12-01T19:54:39.590Z,95361.52
2018-12-01T19:59:48.947Z,95360.47
2018-12-01T20:02:22.426Z,95357.81
2018-12-01T20:04:56.374Z,95358.97
2018-12-01T20:07:27.627Z,95352.95
2018-12-01T20:09:59.484Z,95351.02
2018-12-01T20:12:30.987Z,95349.84
2018-12-01T20:15:02.811Z,95344.47
2018-12-01T20:17:34.156Z,95343.69
2018-12-01T20:20:05.720Z,95338.78
2018-12-01T20:22:37.296Z,95339.69
2018-12-01T20:25:09.710Z,95338.94
2018-12-01T20:27:41.407Z,95334.23
2018-12-01T20:32:50.441Z,95338.76
2018-12-01T20:35:22.936Z,95331.34
2018-12-01T20:37:54.776Z,95330.71
2018-12-01T20:43:03.330Z,95327.73
2018-12-01T20:45:35.856Z,95327.30
2018-12-01T20:48:08.666Z,95328.99
2018-12-01T20:50:42.093Z,95329.11
2018-12-01T20:55:52.776Z,95315.02
2018-12-01T20:58:25.307Z,95318.79
2018-12-01T21:01:00.833Z,95317.91
2018-12-01T21:03:34.131Z,95314.14
2018-12-01T21:08:43.063Z,95308.46
2018-12-01T21:11:12.305Z,95307.75
2018-12-01T21:13:41.431Z,95307.11
2018-12-01T21:16:14.057Z,95310.58
2018-12-01T21:18:43.899Z,95310.33
2018-12-01T21:21:12.982Z,95305.17
2018-12-01T21:23:42.031Z,95304.88
2018-12-01T21:26:11.071Z,95312.98
2018-12-01T21:28:40.108Z,95308.24
2018-12-01T21:31:09.173Z,95309.25
2018-12-01T21:33:38.249Z,95310.08
2018-12-01T21:38:43.009Z,95300.18
2018-12-01T21:41:12.143Z,95303.85
2018-12-01T21:43:41.262Z,95302.42
2018-12-01T21:46:10.581Z,95293.91
2018-12-01T21:48:39.458Z,95297.94
2018-12-01T21:51:08.496Z,95299.39
2018-12-01T21:53:37.590Z,95290.55
2018-12-01T21:58:42.414Z,95296.61
2018-12-01T22:01:15.401Z,95291.80
2018-12-01T22:03:45.174Z,95288.80
2018-12-01T22:06:14.236Z,95280.94
2018-12-01T22:11:18.977Z,95269.54
2018-12-01T22:13:48.104Z,95272.70
2018-12-01T22:16:17.239Z,95276.26
2018-12-01T22:18:46.455Z,95277.63
2018-12-01T22:23:51.250Z,95267.59
2018-12-01T22:26:20.301Z,95268.00
2018-12-01T22:28:49.331Z,95262.17
2018-12-01T22:31:18.383Z,95265.37
2018-12-01T22:33:47.519Z,95250.09
2018-12-01T22:36:16.576Z,95256.14
2018-12-01T22:41:21.375Z,95255.69
2018-12-01T22:44:01.949Z,95241.77
2018-12-01T22:46:31.011Z,95232.20
2018-12-01T22:49:00.149Z,95237.10
2018-12-01T22:51:29.829Z,95240.72
2018-12-01T22:53:58.948Z,95232.30
2018-12-01T22:56:28.935Z,95225.82
2018-12-01T23:01:32.814Z,95232.31
2018-12-01T23:04:03.343Z,95209.05
2018-12-01T23:06:33.435Z,95206.16
2018-12-01T23:09:03.430Z,95207.61
2018-12-01T23:16:47.616Z,95208.67
2018-12-01T23:19:18.097Z,95208.75
2018-12-01T23:21:50.613Z,95210.80
2018-12-01T23:24:19.810Z,95210.73
2018-12-01T23:26:55.013Z,95202.89
2018-12-01T23:29:24.039Z,95196.84
2018-12-01T23:31:53.118Z,95196.27
2018-12-01T23:36:57.847Z,95186.73
2018-12-01T23:39:27.880Z,95187.11
2018-12-01T23:41:56.902Z,95182.98
2018-12-01T23:44:25.953Z,95172.97
2018-12-01T23:46:55.011Z,95176.27
2018-12-01T23:49:24.067Z,95184.31
2018-12-01T23:51:53.171Z,95170.41
2018-12-01T23:54:23.165Z,95183.67
2018-12-01T23:56:52.199Z,95180.30
2018-12-01T23:59:21.254Z,95175.69
